Wray, Colorado
Current Conditions -  °F | °C
As of 1:15 PM on Sunday 21 Dec 2014 (Local Time) from K2V5 Reporting Station
Overcast Overcast  
Wind Chill: 42°   Ceiling: 10000
Heat Index: 45°   Visibility: 10mi
Dew Point: 32°   Wind: 6mph
Humidity: 61%   Direction: 190°S
Pressure: 29.56"   Gusts: NA
Location:  40.08°N, 102.22°W
Report Text: K2V5 212015Z AUTO 19005KT 10SM OVC100 07/00 A2956 RMK AO2 T00710001
Loading
Personal Weather Stations






























Interactive Weather Map New forecast layout! Learn more

10-Day Weather Forecast

Advertisements
Track Severe Weather on mobile